VKG342 EKCH-EFHK
Flight info
| Callsign | VKG342 |
|---|---|
| Flight time | 1h 20m |
| Altitude | 37000 |
| Route | KEMAX Q44 IDPAL DCT MOVIS DCT ALAMI DCT OKEVU DCT EVADI Y370 DIVAM |
| Aircraft | A320/M-SDE3FGHIRWY/LB1 |
Departure
| Time | 2026-04-25 19:01 |
|---|---|
| Airport | Copenhagen Kastrup Airport (EKCH) |
Arrival
| Time | 2026-04-25 20:21 |
|---|---|
| Airport | Helsinki Vantaa Airport (EFHK) |
| Time | Latitude | Longitude | Altitude | Speed | Heading |
|---|---|---|---|---|---|
| 2026-04-25 18:27 | 55.62721 | 12.64094 | 24 ft | 0 kts | 32° |
| 2026-04-25 18:49 | 55.62708 | 12.64078 | 26 ft | 2 kts | 32° |
| 2026-04-25 18:50 | 55.62693 | 12.64062 | 25 ft | 2 kts | 32° |
| 2026-04-25 18:50 | 55.62679 | 12.64044 | 26 ft | 2 kts | 76° |
| 2026-04-25 18:50 | 55.62678 | 12.64029 | 27 ft | 0 kts | 112° |
| 2026-04-25 18:52 | 55.62677 | 12.64033 | 27 ft | 3 kts | 112° |
| 2026-04-25 18:52 | 55.62615 | 12.64255 | 24 ft | 22 kts | 119° |
| 2026-04-25 18:52 | 55.62580 | 12.64332 | 24 ft | 7 kts | 132° |
| 2026-04-25 18:53 | 55.62551 | 12.64387 | 24 ft | 5 kts | 133° |
| 2026-04-25 18:53 | 55.62518 | 12.64446 | 24 ft | 14 kts | 134° |
| 2026-04-25 18:53 | 55.62429 | 12.64662 | 24 ft | 22 kts | 124° |
| 2026-04-25 18:53 | 55.62361 | 12.64785 | 24 ft | 11 kts | 167° |
| 2026-04-25 18:54 | 55.62158 | 12.64716 | 25 ft | 25 kts | 211° |
| 2026-04-25 18:54 | 55.62013 | 12.64542 | 24 ft | 20 kts | 214° |
| 2026-04-25 18:54 | 55.61881 | 12.64521 | 24 ft | 18 kts | 170° |
| 2026-04-25 18:55 | 55.61762 | 12.64556 | 24 ft | 11 kts | 170° |
| 2026-04-25 18:55 | 55.61757 | 12.64557 | 24 ft | 2 kts | 170° |
| 2026-04-25 18:55 | 55.61690 | 12.64555 | 24 ft | 12 kts | 190° |
| 2026-04-25 18:55 | 55.61620 | 12.64503 | 24 ft | 10 kts | 210° |
| 2026-04-25 18:56 | 55.61564 | 12.64440 | 26 ft | 9 kts | 214° |
| 2026-04-25 18:56 | 55.61484 | 12.64345 | 24 ft | 15 kts | 213° |
| 2026-04-25 18:56 | 55.61399 | 12.64247 | 24 ft | 14 kts | 213° |
| 2026-04-25 18:56 | 55.61326 | 12.64160 | 24 ft | 12 kts | 213° |
| 2026-04-25 18:57 | 55.61259 | 12.64083 | 25 ft | 12 kts | 213° |
| 2026-04-25 18:57 | 55.61166 | 12.63979 | 25 ft | 19 kts | 212° |
| 2026-04-25 18:57 | 55.61043 | 12.63839 | 24 ft | 22 kts | 213° |
| 2026-04-25 18:57 | 55.61001 | 12.63789 | 24 ft | 22 kts | 214° |
| 2026-04-25 18:58 | 55.60780 | 12.63529 | 25 ft | 24 kts | 212° |
| 2026-04-25 18:58 | 55.60505 | 12.63200 | 25 ft | 16 kts | 217° |
| 2026-04-25 18:58 | 55.60409 | 12.63159 | 27 ft | 14 kts | 148° |
| 2026-04-25 18:59 | 55.60346 | 12.63354 | 26 ft | 8 kts | 62° |
| 2026-04-25 18:59 | 55.60358 | 12.63374 | 29 ft | 0 kts | 39° |
| 2026-04-25 19:00 | 55.60735 | 12.63933 | 26 ft | 109 kts | 42° |
| 2026-04-25 19:00 | 55.61496 | 12.65080 | 219 ft | 164 kts | 36° |
| 2026-04-25 19:01 | 55.63121 | 12.67821 | 1735 ft | 157 kts | 31° |
| 2026-04-25 19:01 | 55.63981 | 12.69122 | 2125 ft | 171 kts | 31° |
| 2026-04-25 19:01 | 55.64949 | 12.70567 | 2315 ft | 192 kts | 33° |
| 2026-04-25 19:01 | 55.66024 | 12.72145 | 2521 ft | 211 kts | 33° |
| 2026-04-25 19:02 | 55.68343 | 12.75585 | 3608 ft | 219 kts | 34° |
| 2026-04-25 19:02 | 55.69492 | 12.77362 | 4219 ft | 221 kts | 35° |
| 2026-04-25 19:02 | 55.70695 | 12.79226 | 4533 ft | 237 kts | 35° |
| 2026-04-25 19:03 | 55.72359 | 12.81812 | 5253 ft | 242 kts | 35° |
| 2026-04-25 19:03 | 55.74494 | 12.85147 | 6233 ft | 245 kts | 35° |
| 2026-04-25 19:03 | 55.75779 | 12.87157 | 6771 ft | 247 kts | 35° |
| 2026-04-25 19:04 | 55.78393 | 12.91237 | 7793 ft | 253 kts | 34° |
| 2026-04-25 19:04 | 55.79724 | 12.93312 | 8312 ft | 256 kts | 34° |
| 2026-04-25 19:05 | 55.81968 | 12.96813 | 9118 ft | 260 kts | 34° |
| 2026-04-25 19:05 | 55.84718 | 13.01128 | 9986 ft | 270 kts | 34° |
| 2026-04-25 19:05 | 55.86164 | 13.03386 | 10106 ft | 283 kts | 34° |
| 2026-04-25 19:06 | 55.87674 | 13.05747 | 10231 ft | 294 kts | 34° |
| 2026-04-25 19:06 | 55.90798 | 13.10660 | 10784 ft | 301 kts | 36° |
| 2026-04-25 19:06 | 55.92371 | 13.13146 | 11084 ft | 304 kts | 36° |
| 2026-04-25 19:07 | 55.95533 | 13.18153 | 11669 ft | 307 kts | 35° |
| 2026-04-25 19:07 | 55.97137 | 13.20691 | 11943 ft | 309 kts | 35° |
| 2026-04-25 19:08 | 56.00373 | 13.25822 | 12458 ft | 313 kts | 35° |
| 2026-04-25 19:08 | 56.02003 | 13.28433 | 12708 ft | 316 kts | 38° |
| 2026-04-25 19:09 | 56.06363 | 13.37587 | 13399 ft | 325 kts | 44° |
| 2026-04-25 19:09 | 56.07313 | 13.39669 | 13540 ft | 327 kts | 44° |
| 2026-04-25 19:09 | 56.10691 | 13.47072 | 14071 ft | 327 kts | 44° |
| 2026-04-25 19:10 | 56.12101 | 13.50167 | 14715 ft | 313 kts | 44° |
| 2026-04-25 19:10 | 56.13443 | 13.53125 | 15493 ft | 300 kts | 43° |
| 2026-04-25 19:10 | 56.14726 | 13.55945 | 16285 ft | 293 kts | 42° |
| 2026-04-25 19:10 | 56.16025 | 13.58776 | 17110 ft | 293 kts | 41° |
| 2026-04-25 19:11 | 56.17355 | 13.61651 | 17513 ft | 309 kts | 41° |
| 2026-04-25 19:11 | 56.18786 | 13.64717 | 17659 ft | 330 kts | 41° |
| 2026-04-25 19:11 | 56.20302 | 13.67986 | 17839 ft | 349 kts | 42° |
| 2026-04-25 19:11 | 56.21863 | 13.71399 | 18324 ft | 357 kts | 42° |
| 2026-04-25 19:12 | 56.23435 | 13.74884 | 18878 ft | 361 kts | 42° |
| 2026-04-25 19:12 | 56.25018 | 13.78409 | 19456 ft | 364 kts | 42° |
| 2026-04-25 19:12 | 56.26618 | 13.81965 | 20022 ft | 367 kts | 41° |
| 2026-04-25 19:12 | 56.28232 | 13.85548 | 20587 ft | 370 kts | 41° |
| 2026-04-25 19:13 | 56.29865 | 13.89170 | 21166 ft | 374 kts | 42° |
| 2026-04-25 19:13 | 56.31529 | 13.92853 | 21604 ft | 381 kts | 42° |
| 2026-04-25 19:13 | 56.33212 | 13.96577 | 22155 ft | 385 kts | 43° |
| 2026-04-25 19:13 | 56.34908 | 14.00339 | 22686 ft | 389 kts | 42° |
| 2026-04-25 19:14 | 56.36620 | 14.04148 | 23224 ft | 392 kts | 42° |
| 2026-04-25 19:14 | 56.37755 | 14.06682 | 23541 ft | 394 kts | 42° |
| 2026-04-25 19:14 | 56.40070 | 14.11864 | 24116 ft | 398 kts | 42° |
| 2026-04-25 19:14 | 56.41794 | 14.15727 | 24534 ft | 401 kts | 42° |
| 2026-04-25 19:15 | 56.43549 | 14.19663 | 24944 ft | 403 kts | 42° |
| 2026-04-25 19:15 | 56.45314 | 14.23630 | 25340 ft | 406 kts | 42° |
| 2026-04-25 19:15 | 56.47091 | 14.27623 | 25715 ft | 408 kts | 41° |
| 2026-04-25 19:15 | 56.48878 | 14.31649 | 26087 ft | 411 kts | 41° |
| 2026-04-25 19:16 | 56.50670 | 14.35695 | 26465 ft | 413 kts | 41° |
| 2026-04-25 19:16 | 56.52471 | 14.39765 | 26833 ft | 415 kts | 41° |
| 2026-04-25 19:16 | 56.54282 | 14.43863 | 27243 ft | 418 kts | 42° |
| 2026-04-25 19:16 | 56.56106 | 14.47995 | 27612 ft | 420 kts | 42° |
| 2026-04-25 19:17 | 56.57934 | 14.52142 | 27967 ft | 422 kts | 42° |
| 2026-04-25 19:17 | 56.59774 | 14.56322 | 28318 ft | 425 kts | 42° |
| 2026-04-25 19:17 | 56.61621 | 14.60529 | 28655 ft | 427 kts | 42° |
| 2026-04-25 19:17 | 56.63453 | 14.64706 | 28971 ft | 429 kts | 42° |
| 2026-04-25 19:18 | 56.65317 | 14.68970 | 29287 ft | 433 kts | 43° |
| 2026-04-25 19:18 | 56.67204 | 14.73293 | 29467 ft | 439 kts | 43° |
| 2026-04-25 19:18 | 56.69106 | 14.77662 | 29722 ft | 442 kts | 43° |
| 2026-04-25 19:18 | 56.71018 | 14.82063 | 29991 ft | 444 kts | 43° |
| 2026-04-25 19:19 | 56.72939 | 14.86487 | 30223 ft | 447 kts | 43° |
| 2026-04-25 19:19 | 56.74867 | 14.90935 | 30472 ft | 449 kts | 43° |
| 2026-04-25 19:19 | 56.76805 | 14.95416 | 30747 ft | 451 kts | 44° |
| 2026-04-25 19:19 | 56.78115 | 14.98454 | 30938 ft | 451 kts | 44° |
| 2026-04-25 19:20 | 56.80677 | 15.04416 | 31401 ft | 451 kts | 44° |
| 2026-04-25 19:20 | 56.82606 | 15.08920 | 31725 ft | 450 kts | 44° |
| 2026-04-25 19:20 | 56.84536 | 15.13426 | 32044 ft | 450 kts | 44° |
| 2026-04-25 19:20 | 56.86468 | 15.17938 | 32367 ft | 451 kts | 44° |
| 2026-04-25 19:21 | 56.88396 | 15.22448 | 32678 ft | 450 kts | 44° |
| 2026-04-25 19:21 | 56.92254 | 15.31484 | 33321 ft | 450 kts | 45° |
| 2026-04-25 19:21 | 56.94178 | 15.36009 | 33638 ft | 451 kts | 45° |
| 2026-04-25 19:22 | 56.96102 | 15.40540 | 33933 ft | 451 kts | 45° |
| 2026-04-25 19:22 | 56.98025 | 15.45079 | 34255 ft | 451 kts | 45° |
| 2026-04-25 19:22 | 57.01873 | 15.54204 | 34678 ft | 455 kts | 45° |
| 2026-04-25 19:23 | 57.03813 | 15.58805 | 34870 ft | 456 kts | 45° |
| 2026-04-25 19:23 | 57.07694 | 15.68035 | 35308 ft | 457 kts | 46° |
| 2026-04-25 19:23 | 57.09633 | 15.72665 | 35532 ft | 457 kts | 46° |
| 2026-04-25 19:24 | 57.11569 | 15.77300 | 35753 ft | 457 kts | 46° |
| 2026-04-25 19:24 | 57.13500 | 15.81929 | 35963 ft | 457 kts | 46° |
| 2026-04-25 19:24 | 57.17373 | 15.91235 | 36374 ft | 457 kts | 46° |
| 2026-04-25 19:25 | 57.21235 | 16.00551 | 36785 ft | 457 kts | 46° |
| 2026-04-25 19:25 | 57.25088 | 16.09886 | 36841 ft | 457 kts | 46° |
| 2026-04-25 19:26 | 57.28936 | 16.19246 | 36834 ft | 456 kts | 47° |
| 2026-04-25 19:26 | 57.32771 | 16.28611 | 36834 ft | 456 kts | 47° |
| 2026-04-25 19:27 | 57.35963 | 16.36433 | 36830 ft | 458 kts | 47° |
| 2026-04-25 19:27 | 57.40457 | 16.47483 | 36852 ft | 459 kts | 47° |
| 2026-04-25 19:28 | 57.44292 | 16.56961 | 36841 ft | 459 kts | 48° |
| 2026-04-25 19:28 | 57.48114 | 16.66464 | 36837 ft | 459 kts | 48° |
| 2026-04-25 19:29 | 57.51936 | 16.75988 | 36838 ft | 459 kts | 48° |
| 2026-04-25 19:29 | 57.55727 | 16.85450 | 36827 ft | 459 kts | 48° |
| 2026-04-25 19:30 | 57.59535 | 16.94997 | 36822 ft | 459 kts | 48° |
| 2026-04-25 19:30 | 57.63333 | 17.04569 | 36826 ft | 459 kts | 48° |
| 2026-04-25 19:31 | 57.67130 | 17.14159 | 36819 ft | 459 kts | 48° |
| 2026-04-25 19:31 | 57.70913 | 17.23777 | 36824 ft | 459 kts | 49° |
| 2026-04-25 19:32 | 57.74696 | 17.33428 | 36809 ft | 460 kts | 49° |
| 2026-04-25 19:32 | 57.77197 | 17.39829 | 36808 ft | 460 kts | 49° |
| 2026-04-25 19:33 | 57.82245 | 17.52804 | 36834 ft | 460 kts | 49° |
| 2026-04-25 19:33 | 57.86011 | 17.62539 | 36821 ft | 460 kts | 49° |
| 2026-04-25 19:34 | 57.89773 | 17.72287 | 36814 ft | 460 kts | 49° |
| 2026-04-25 19:34 | 57.93498 | 17.81993 | 36811 ft | 460 kts | 50° |
| 2026-04-25 19:35 | 57.97235 | 17.91784 | 36799 ft | 460 kts | 50° |
| 2026-04-25 19:35 | 58.00968 | 18.01580 | 36798 ft | 460 kts | 50° |
| 2026-04-25 19:36 | 58.04697 | 18.11397 | 36816 ft | 460 kts | 50° |
| 2026-04-25 19:36 | 58.08419 | 18.21228 | 36807 ft | 460 kts | 50° |
| 2026-04-25 19:37 | 58.12129 | 18.31082 | 36795 ft | 460 kts | 50° |
| 2026-04-25 19:37 | 58.15840 | 18.40994 | 36786 ft | 460 kts | 50° |
| 2026-04-25 19:38 | 58.19537 | 18.50900 | 36786 ft | 460 kts | 50° |
| 2026-04-25 19:38 | 58.23114 | 18.60515 | 36785 ft | 460 kts | 50° |
| 2026-04-25 19:39 | 58.26228 | 18.68938 | 36801 ft | 460 kts | 51° |
| 2026-04-25 19:39 | 58.29925 | 18.78973 | 36794 ft | 460 kts | 51° |
| 2026-04-25 19:40 | 58.33591 | 18.88954 | 36786 ft | 460 kts | 51° |
| 2026-04-25 19:40 | 58.37241 | 18.98892 | 36775 ft | 461 kts | 51° |
| 2026-04-25 19:41 | 58.40906 | 19.08955 | 36755 ft | 462 kts | 51° |
| 2026-04-25 19:41 | 58.43354 | 19.15709 | 36746 ft | 463 kts | 52° |
| 2026-04-25 19:42 | 58.48202 | 19.29161 | 36764 ft | 463 kts | 52° |
| 2026-04-25 19:42 | 58.51861 | 19.39321 | 36754 ft | 464 kts | 52° |
| 2026-04-25 19:43 | 58.55517 | 19.49489 | 36749 ft | 464 kts | 52° |
| 2026-04-25 19:43 | 58.59159 | 19.59692 | 36754 ft | 464 kts | 52° |
| 2026-04-25 19:44 | 58.62790 | 19.69924 | 36736 ft | 464 kts | 52° |
| 2026-04-25 19:44 | 58.66216 | 19.79627 | 36760 ft | 464 kts | 52° |
| 2026-04-25 19:45 | 58.69831 | 19.89901 | 36758 ft | 464 kts | 52° |
| 2026-04-25 19:45 | 58.73444 | 20.00216 | 36721 ft | 465 kts | 53° |
| 2026-04-25 19:46 | 58.76454 | 20.08838 | 36703 ft | 466 kts | 52° |
| 2026-04-25 19:46 | 58.80070 | 20.19231 | 36709 ft | 467 kts | 53° |
| 2026-04-25 19:47 | 58.83680 | 20.29666 | 36703 ft | 467 kts | 52° |
| 2026-04-25 19:47 | 58.87861 | 20.41832 | 36722 ft | 468 kts | 53° |
| 2026-04-25 19:48 | 58.90876 | 20.50622 | 36699 ft | 468 kts | 52° |
| 2026-04-25 19:48 | 58.94479 | 20.61143 | 36694 ft | 469 kts | 52° |
| 2026-04-25 19:49 | 58.97469 | 20.69915 | 36692 ft | 469 kts | 52° |
| 2026-04-25 19:49 | 59.01630 | 20.82207 | 36678 ft | 469 kts | 54° |
| 2026-04-25 19:50 | 59.06965 | 20.98225 | 36674 ft | 472 kts | 54° |
| 2026-04-25 19:51 | 59.10395 | 21.09162 | 36548 ft | 476 kts | 56° |
| 2026-04-25 19:51 | 59.12095 | 21.14685 | 36301 ft | 476 kts | 54° |
| 2026-04-25 19:51 | 59.13796 | 21.20210 | 36043 ft | 475 kts | 56° |
| 2026-04-25 19:51 | 59.15485 | 21.25677 | 35803 ft | 475 kts | 55° |
| 2026-04-25 19:52 | 59.17209 | 21.31229 | 35566 ft | 474 kts | 56° |
| 2026-04-25 19:52 | 59.18921 | 21.36727 | 35328 ft | 474 kts | 53° |
| 2026-04-25 19:52 | 59.20638 | 21.42228 | 35093 ft | 474 kts | 55° |
| 2026-04-25 19:52 | 59.22344 | 21.47725 | 34871 ft | 474 kts | 55° |
| 2026-04-25 19:53 | 59.24047 | 21.53232 | 34637 ft | 473 kts | 56° |
| 2026-04-25 19:53 | 59.25741 | 21.58737 | 34420 ft | 473 kts | 54° |
| 2026-04-25 19:53 | 59.27414 | 21.64186 | 34197 ft | 474 kts | 55° |
| 2026-04-25 19:53 | 59.29105 | 21.69706 | 33962 ft | 473 kts | 54° |
| 2026-04-25 19:54 | 59.30798 | 21.75248 | 33494 ft | 475 kts | 56° |
| 2026-04-25 19:54 | 59.32510 | 21.80867 | 32197 ft | 485 kts | 57° |
| 2026-04-25 19:54 | 59.34253 | 21.86598 | 31038 ft | 493 kts | 58° |
| 2026-04-25 19:54 | 59.35408 | 21.90414 | 30696 ft | 488 kts | 56° |
| 2026-04-25 19:55 | 59.37698 | 21.97988 | 29938 ft | 478 kts | 55° |
| 2026-04-25 19:55 | 59.39385 | 22.03570 | 29327 ft | 471 kts | 56° |
| 2026-04-25 19:55 | 59.41046 | 22.09078 | 28614 ft | 465 kts | 57° |
| 2026-04-25 19:55 | 59.42685 | 22.14518 | 27949 ft | 459 kts | 55° |
| 2026-04-25 19:56 | 59.44299 | 22.19880 | 27293 ft | 454 kts | 56° |
| 2026-04-25 19:56 | 59.45890 | 22.25183 | 26693 ft | 447 kts | 57° |
| 2026-04-25 19:56 | 59.47456 | 22.30432 | 26076 ft | 442 kts | 56° |
| 2026-04-25 19:56 | 59.48995 | 22.35618 | 25487 ft | 436 kts | 55° |
| 2026-04-25 19:57 | 59.50517 | 22.40754 | 24883 ft | 432 kts | 55° |
| 2026-04-25 19:57 | 59.52023 | 22.45829 | 24297 ft | 427 kts | 56° |
| 2026-04-25 19:57 | 59.53513 | 22.50856 | 23733 ft | 422 kts | 55° |
| 2026-04-25 19:57 | 59.54973 | 22.55755 | 23282 ft | 414 kts | 56° |
| 2026-04-25 19:58 | 59.56457 | 22.60520 | 23015 ft | 401 kts | 53° |
| 2026-04-25 19:58 | 59.57938 | 22.65102 | 22714 ft | 391 kts | 52° |
| 2026-04-25 19:58 | 59.59409 | 22.69568 | 22436 ft | 386 kts | 52° |
| 2026-04-25 19:58 | 59.60874 | 22.74001 | 22125 ft | 384 kts | 52° |
| 2026-04-25 19:59 | 59.62331 | 22.78425 | 21841 ft | 384 kts | 51° |
| 2026-04-25 19:59 | 59.63774 | 22.82854 | 21566 ft | 382 kts | 51° |
| 2026-04-25 19:59 | 59.65201 | 22.87285 | 21289 ft | 381 kts | 52° |
| 2026-04-25 19:59 | 59.66619 | 22.91717 | 21012 ft | 379 kts | 52° |
| 2026-04-25 20:00 | 59.68022 | 22.96119 | 20728 ft | 377 kts | 55° |
| 2026-04-25 20:00 | 59.68947 | 22.99032 | 20549 ft | 376 kts | 55° |
| 2026-04-25 20:00 | 59.70760 | 23.04753 | 20275 ft | 363 kts | 52° |
| 2026-04-25 20:00 | 59.72076 | 23.08919 | 20138 ft | 350 kts | 51° |
| 2026-04-25 20:01 | 59.74713 | 23.17216 | 18637 ft | 362 kts | 52° |
| 2026-04-25 20:01 | 59.76076 | 23.21498 | 17780 ft | 370 kts | 54° |
| 2026-04-25 20:01 | 59.77444 | 23.25828 | 17115 ft | 370 kts | 52° |
| 2026-04-25 20:02 | 59.78806 | 23.30168 | 16429 ft | 370 kts | 54° |
| 2026-04-25 20:02 | 59.80165 | 23.34507 | 15775 ft | 370 kts | 53° |
| 2026-04-25 20:02 | 59.81524 | 23.38843 | 15129 ft | 369 kts | 52° |
| 2026-04-25 20:02 | 59.82877 | 23.43161 | 14506 ft | 368 kts | 52° |
| 2026-04-25 20:03 | 59.84227 | 23.47472 | 13886 ft | 366 kts | 52° |
| 2026-04-25 20:03 | 59.85569 | 23.51765 | 13268 ft | 365 kts | 53° |
| 2026-04-25 20:03 | 59.86879 | 23.55987 | 12982 ft | 353 kts | 54° |
| 2026-04-25 20:03 | 59.88148 | 23.60096 | 12718 ft | 341 kts | 53° |
| 2026-04-25 20:04 | 59.89369 | 23.64054 | 12441 ft | 328 kts | 53° |
| 2026-04-25 20:04 | 59.90513 | 23.67778 | 12296 ft | 303 kts | 53° |
| 2026-04-25 20:04 | 59.91567 | 23.71227 | 12148 ft | 280 kts | 52° |
| 2026-04-25 20:04 | 59.92549 | 23.74434 | 12008 ft | 261 kts | 52° |
| 2026-04-25 20:05 | 59.93453 | 23.77375 | 11896 ft | 244 kts | 49° |
| 2026-04-25 20:05 | 59.94312 | 23.80161 | 11702 ft | 229 kts | 47° |
| 2026-04-25 20:05 | 59.95137 | 23.82824 | 11355 ft | 223 kts | 53° |
| 2026-04-25 20:05 | 59.95955 | 23.85454 | 10929 ft | 222 kts | 52° |
| 2026-04-25 20:06 | 59.96766 | 23.88065 | 10510 ft | 220 kts | 48° |
| 2026-04-25 20:06 | 59.97566 | 23.90647 | 10129 ft | 217 kts | 50° |
| 2026-04-25 20:06 | 59.98354 | 23.93199 | 9754 ft | 215 kts | 49° |
| 2026-04-25 20:06 | 59.99132 | 23.95722 | 9596 ft | 215 kts | 51° |
| 2026-04-25 20:07 | 59.99916 | 23.98274 | 9470 ft | 214 kts | 52° |
| 2026-04-25 20:07 | 60.00697 | 24.00827 | 9084 ft | 217 kts | 49° |
| 2026-04-25 20:07 | 60.01491 | 24.03423 | 8560 ft | 218 kts | 49° |
| 2026-04-25 20:07 | 60.02278 | 24.06007 | 8122 ft | 217 kts | 52° |
| 2026-04-25 20:08 | 60.03055 | 24.08569 | 7704 ft | 215 kts | 52° |
| 2026-04-25 20:08 | 60.03824 | 24.11109 | 7277 ft | 212 kts | 52° |
| 2026-04-25 20:08 | 60.04586 | 24.13625 | 6858 ft | 210 kts | 52° |
| 2026-04-25 20:08 | 60.05338 | 24.16113 | 6449 ft | 208 kts | 52° |
| 2026-04-25 20:09 | 60.06086 | 24.18589 | 6041 ft | 206 kts | 52° |
| 2026-04-25 20:09 | 60.06817 | 24.21008 | 5721 ft | 199 kts | 52° |
| 2026-04-25 20:09 | 60.07512 | 24.23312 | 5551 ft | 186 kts | 51° |
| 2026-04-25 20:09 | 60.08158 | 24.25459 | 5351 ft | 176 kts | 51° |
| 2026-04-25 20:10 | 60.08780 | 24.27527 | 5061 ft | 171 kts | 50° |
| 2026-04-25 20:10 | 60.09380 | 24.29522 | 4752 ft | 167 kts | 50° |
| 2026-04-25 20:10 | 60.09957 | 24.31449 | 4455 ft | 152 kts | 49° |
| 2026-04-25 20:10 | 60.10475 | 24.33190 | 4154 ft | 139 kts | 48° |
| 2026-04-25 20:11 | 60.10955 | 24.34792 | 3873 ft | 129 kts | 46° |
| 2026-04-25 20:11 | 60.11417 | 24.36323 | 3623 ft | 127 kts | 45° |
| 2026-04-25 20:11 | 60.11876 | 24.37834 | 3375 ft | 127 kts | 45° |
| 2026-04-25 20:11 | 60.12331 | 24.39341 | 3268 ft | 126 kts | 44° |
| 2026-04-25 20:12 | 60.12788 | 24.40854 | 3214 ft | 127 kts | 44° |
| 2026-04-25 20:12 | 60.13254 | 24.42396 | 2812 ft | 130 kts | 43° |
| 2026-04-25 20:12 | 60.13714 | 24.43933 | 2405 ft | 127 kts | 42° |
| 2026-04-25 20:12 | 60.13868 | 24.44447 | 2341 ft | 126 kts | 42° |
| 2026-04-25 20:13 | 60.14630 | 24.46986 | 2307 ft | 129 kts | 42° |
| 2026-04-25 20:13 | 60.15092 | 24.48527 | 2303 ft | 129 kts | 42° |
| 2026-04-25 20:13 | 60.15556 | 24.50067 | 2299 ft | 129 kts | 42° |
| 2026-04-25 20:13 | 60.16020 | 24.51621 | 2299 ft | 130 kts | 43° |
| 2026-04-25 20:14 | 60.16478 | 24.53161 | 2318 ft | 130 kts | 43° |
| 2026-04-25 20:14 | 60.16941 | 24.54716 | 2306 ft | 130 kts | 43° |
| 2026-04-25 20:14 | 60.17403 | 24.56268 | 2304 ft | 129 kts | 43° |
| 2026-04-25 20:14 | 60.17865 | 24.57817 | 2303 ft | 129 kts | 43° |
| 2026-04-25 20:15 | 60.18326 | 24.59367 | 2303 ft | 129 kts | 43° |
| 2026-04-25 20:15 | 60.18788 | 24.60918 | 2300 ft | 129 kts | 43° |
| 2026-04-25 20:15 | 60.19249 | 24.62470 | 2296 ft | 129 kts | 43° |
| 2026-04-25 20:15 | 60.19707 | 24.64015 | 2297 ft | 129 kts | 42° |
| 2026-04-25 20:16 | 60.20177 | 24.65543 | 2307 ft | 127 kts | 39° |
| 2026-04-25 20:16 | 60.20699 | 24.66944 | 2301 ft | 124 kts | 36° |
| 2026-04-25 20:16 | 60.21248 | 24.68278 | 2298 ft | 124 kts | 34° |
| 2026-04-25 20:16 | 60.21813 | 24.69583 | 2313 ft | 123 kts | 34° |
| 2026-04-25 20:17 | 60.22383 | 24.70864 | 2298 ft | 122 kts | 34° |
| 2026-04-25 20:17 | 60.22954 | 24.72127 | 2294 ft | 122 kts | 33° |
| 2026-04-25 20:17 | 60.23527 | 24.73387 | 2299 ft | 122 kts | 33° |
| 2026-04-25 20:17 | 60.24102 | 24.74646 | 2248 ft | 122 kts | 33° |
| 2026-04-25 20:18 | 60.24680 | 24.75909 | 2125 ft | 123 kts | 33° |
| 2026-04-25 20:18 | 60.25263 | 24.77182 | 1980 ft | 124 kts | 32° |
| 2026-04-25 20:18 | 60.25841 | 24.78445 | 1815 ft | 125 kts | 33° |
| 2026-04-25 20:18 | 60.26438 | 24.79746 | 1645 ft | 128 kts | 33° |
| 2026-04-25 20:19 | 60.27044 | 24.81072 | 1481 ft | 130 kts | 34° |
| 2026-04-25 20:19 | 60.27658 | 24.82416 | 1284 ft | 131 kts | 34° |
| 2026-04-25 20:19 | 60.28287 | 24.83789 | 1078 ft | 136 kts | 36° |
| 2026-04-25 20:19 | 60.28942 | 24.85222 | 866 ft | 141 kts | 37° |
| 2026-04-25 20:20 | 60.29618 | 24.86703 | 672 ft | 145 kts | 40° |
| 2026-04-25 20:20 | 60.30305 | 24.88213 | 482 ft | 147 kts | 39° |
| 2026-04-25 20:20 | 60.30995 | 24.89718 | 299 ft | 144 kts | 38° |
| 2026-04-25 20:20 | 60.31630 | 24.91205 | 152 ft | 131 kts | 37° |
| 2026-04-25 20:21 | 60.31975 | 24.92103 | 155 ft | 40 kts | 68° |
| 2026-04-25 20:21 | 60.31995 | 24.92184 | 158 ft | 1 kts | 53° |
| 2026-04-25 20:21 | 60.31995 | 24.92243 | 159 ft | 10 kts | 109° |
| 2026-04-25 20:21 | 60.31975 | 24.92249 | 159 ft | 5 kts | 202° |
| 2026-04-25 20:22 | 60.31960 | 24.92230 | 159 ft | 0 kts | 219° |
| 2026-04-25 20:22 | 60.31960 | 24.92223 | 159 ft | 0 kts | 251° |